Time,TemperatureF,DewpointF,PressureIn,WindDirection,WindDirectionDegrees,WindSpeedMPH,WindSpeedGustMPH,Humidity,HourlyPrecipIn,Conditions,Clouds,dailyrainin,SoftwareType,DateUTC
2013-07-05 00:00:00,72.5,70.4,29.85,SSW,202,2.0,2.0,93,0.00,,,0.00,Wunderground v.1.15,2013-07-05 04:00:00,
2013-07-05 00:06:00,72.4,70.3,29.85,SSW,202,2.0,2.0,93,0.00,,,0.00,Wunderground v.1.15,2013-07-05 04:06:00,
2013-07-05 00:15:00,72.2,70.4,29.85,SSW,202,2.0,2.0,94,0.00,,,0.00,Wunderground v.1.15,2013-07-05 04:15:00,
2013-07-05 00:20:00,72.1,70.3,29.85,SSW,202,2.0,2.0,94,0.00,,,0.00,Wunderground v.1.15,2013-07-05 04:20:00,
2013-07-05 00:25:00,71.9,70.1,29.85,SSW,202,1.0,2.0,94,0.00,,,0.00,Wunderground v.1.15,2013-07-05 04:25:00,
2013-07-05 00:30:00,71.9,70.1,29.86,SSW,202,1.0,1.0,94,0.00,,,0.00,Wunderground v.1.15,2013-07-05 04:30:00,
2013-07-05 00:40:00,71.7,69.9,29.86,SSW,202,1.0,1.0,94,0.00,,,0.00,Wunderground v.1.15,2013-07-05 04:40:00,
2013-07-05 00:45:00,71.6,69.8,29.86,SSW,202,0.0,1.0,94,0.00,,,0.00,Wunderground v.1.15,2013-07-05 04:45:00,
2013-07-05 00:55:00,71.4,69.9,29.86,SSW,202,1.0,1.0,95,0.00,,,0.00,Wunderground v.1.15,2013-07-05 04:55:00,
2013-07-05 01:00:00,71.3,69.8,29.86,SSW,199,0.0,1.0,95,0.00,,,0.00,Wunderground v.1.15,2013-07-05 05:00:00,
2013-07-05 01:05:00,71.3,69.8,29.86,SSW,199,1.0,1.0,95,0.00,,,0.00,Wunderground v.1.15,2013-07-05 05:05:00,
2013-07-05 01:15:00,71.3,69.8,29.86,SSW,199,0.0,2.0,95,0.00,,,0.00,Wunderground v.1.15,2013-07-05 05:15:00,
2013-07-05 01:25:00,71.6,70.1,29.85,SSW,199,1.0,1.0,95,0.00,,,0.00,Wunderground v.1.15,2013-07-05 05:25:00,
2013-07-05 01:35:00,71.7,70.2,29.86,SSW,199,1.0,2.0,95,0.00,,,0.00,Wunderground v.1.15,2013-07-05 05:35:00,
2013-07-05 01:40:00,71.7,70.2,29.85,SSW,199,1.0,1.0,95,0.00,,,0.00,Wunderground v.1.15,2013-07-05 05:40:00,
2013-07-05 01:45:00,71.7,70.2,29.85,SSW,199,2.0,2.0,95,0.00,,,0.00,Wunderground v.1.15,2013-07-05 05:45:00,
2013-07-05 01:55:00,71.8,70.0,29.85,SSW,199,1.0,2.0,94,0.00,,,0.00,Wunderground v.1.15,2013-07-05 05:55:00,
2013-07-05 02:06:00,72.0,70.2,29.85,SSW,199,1.0,2.0,94,0.00,,,0.00,Wunderground v.1.15,2013-07-05 06:06:00,
2013-07-05 02:15:00,72.1,70.3,29.85,SSW,199,1.0,1.0,94,0.00,,,0.00,Wunderground v.1.15,2013-07-05 06:15:00,
2013-07-05 02:25:00,72.2,70.4,29.85,SSW,199,0.0,1.0,94,0.00,,,0.00,Wunderground v.1.15,2013-07-05 06:25:00,
2013-07-05 02:35:00,72.4,70.3,29.86,SSW,199,1.0,2.0,93,0.00,,,0.00,Wunderground v.1.15,2013-07-05 06:35:00,
2013-07-05 02:45:00,72.4,70.3,29.85,SSW,199,0.0,1.0,93,0.00,,,0.00,Wunderground v.1.15,2013-07-05 06:45:00,
2013-07-05 02:55:00,72.2,70.1,29.86,SSW,199,0.0,1.0,93,0.00,,,0.00,Wunderground v.1.15,2013-07-05 06:55:00,
2013-07-05 03:06:00,72.2,70.1,29.86,SSW,199,1.0,1.0,93,0.00,,,0.00,Wunderground v.1.15,2013-07-05 07:06:00,
2013-07-05 03:15:00,72.3,70.2,29.85,SSW,199,0.0,1.0,93,0.00,,,0.00,Wunderground v.1.15,2013-07-05 07:15:00,
2013-07-05 03:25:00,72.4,70.3,29.85,SSW,199,1.0,2.0,93,0.00,,,0.00,Wunderground v.1.15,2013-07-05 07:25:00,
2013-07-05 03:35:00,72.6,70.5,29.85,SSW,199,1.0,1.0,93,0.00,,,0.00,Wunderground v.1.15,2013-07-05 07:35:00,
2013-07-05 03:40:00,72.6,70.1,29.85,SSW,199,1.0,1.0,92,0.00,,,0.00,Wunderground v.1.15,2013-07-05 07:40:00,
2013-07-05 03:50:00,72.7,70.2,29.85,SSW,199,0.0,0.0,92,0.00,,,0.00,Wunderground v.1.15,2013-07-05 07:50:00,
2013-07-05 03:55:00,72.7,70.2,29.85,SSW,199,0.0,0.0,92,0.00,,,0.00,Wunderground v.1.15,2013-07-05 07:55:00,
2013-07-05 04:06:00,72.7,70.2,29.85,SSW,199,1.0,1.0,92,0.00,,,0.00,Wunderground v.1.15,2013-07-05 08:06:00,
2013-07-05 04:15:00,72.8,70.3,29.85,SSW,199,0.0,1.0,92,0.00,,,0.00,Wunderground v.1.15,2013-07-05 08:15:00,
2013-07-05 04:25:00,72.8,70.3,29.86,SSW,199,0.0,2.0,92,0.37,,,0.03,Wunderground v.1.15,2013-07-05 08:25:00,
2013-07-05 04:30:00,72.6,70.5,29.85,WSW,242,1.0,4.0,93,0.42,,,0.08,Wunderground v.1.15,2013-07-05 08:30:00,
2013-07-05 04:40:00,72.1,70.3,29.85,SSW,213,3.0,3.0,94,0.10,,,0.12,Wunderground v.1.15,2013-07-05 08:40:00,
2013-07-05 04:45:00,71.9,70.1,29.85,SSW,213,1.0,3.0,94,0.05,,,0.12,Wunderground v.1.15,2013-07-05 08:45:00,
2013-07-05 04:55:00,71.7,70.2,29.85,SSW,213,1.0,2.0,95,0.00,,,0.12,Wunderground v.1.15,2013-07-05 08:55:00,
2013-07-05 05:00:00,71.6,70.1,29.85,SSW,213,1.0,1.0,95,0.00,,,0.12,Wunderground v.1.15,2013-07-05 09:00:00,
2013-07-05 05:05:00,71.5,70.0,29.85,SSW,213,0.0,1.0,95,0.00,,,0.12,Wunderground v.1.15,2013-07-05 09:05:00,
2013-07-05 05:15:00,71.3,70.1,29.85,SSW,213,0.0,0.0,96,0.00,,,0.12,Wunderground v.1.15,2013-07-05 09:15:00,
2013-07-05 05:30:00,71.0,69.8,29.85,SSW,213,0.0,0.0,96,0.00,,,0.12,Wunderground v.1.15,2013-07-05 09:30:00,
2013-07-05 05:40:00,70.8,69.6,29.86,SSW,213,0.0,0.0,96,0.00,,,0.12,Wunderground v.1.15,2013-07-05 09:40:00,
2013-07-05 05:50:00,70.8,69.9,29.86,SSW,213,0.0,0.0,97,0.00,,,0.12,Wunderground v.1.15,2013-07-05 09:50:00,
2013-07-05 06:00:00,70.7,69.8,29.86,SSW,213,0.0,0.0,97,0.00,,,0.12,Wunderground v.1.15,2013-07-05 10:00:00,
2013-07-05 06:10:00,70.5,69.6,29.86,SSW,213,0.0,0.0,97,0.00,,,0.12,Wunderground v.1.15,2013-07-05 10:10:00,
2013-07-05 06:25:00,70.6,69.7,29.86,SSW,213,0.0,0.0,97,0.00,,,0.12,Wunderground v.1.15,2013-07-05 10:25:00,
2013-07-05 06:30:00,70.7,69.8,29.86,SSW,213,0.0,0.0,97,0.00,,,0.12,Wunderground v.1.15,2013-07-05 10:30:00,
2013-07-05 06:40:00,71.2,70.6,29.86,SSW,213,0.0,0.0,98,0.00,,,0.12,Wunderground v.1.15,2013-07-05 10:40:00,
2013-07-05 06:50:00,72.0,71.4,29.85,SSW,213,0.0,0.0,98,0.00,,,0.12,Wunderground v.1.15,2013-07-05 10:50:00,
2013-07-05 07:00:00,72.7,72.1,29.85,SSW,213,0.0,1.0,98,0.00,,,0.12,Wunderground v.1.15,2013-07-05 11:00:00,
2013-07-05 07:05:00,72.7,71.8,29.85,SSW,213,1.0,1.0,97,0.00,,,0.12,Wunderground v.1.15,2013-07-05 11:05:00,
2013-07-05 07:15:00,72.9,72.0,29.85,SSW,213,1.0,2.0,97,0.00,,,0.12,Wunderground v.1.15,2013-07-05 11:15:00,
2013-07-05 07:25:00,73.4,72.2,29.85,SSW,213,2.0,2.0,96,0.00,,,0.12,Wunderground v.1.15,2013-07-05 11:25:00,
2013-07-05 07:35:00,73.9,72.4,29.85,SSW,213,2.0,2.0,95,0.00,,,0.12,Wunderground v.1.15,2013-07-05 11:35:00,
2013-07-05 07:40:00,74.3,72.8,29.85,SSW,213,2.0,2.0,95,0.00,,,0.12,Wunderground v.1.15,2013-07-05 11:40:00,
2013-07-05 07:50:00,74.7,72.5,29.85,SSW,196,3.0,3.0,93,0.00,,,0.12,Wunderground v.1.15,2013-07-05 11:50:00,
2013-07-05 08:00:00,75.0,72.5,29.85,SSW,201,3.0,3.0,92,0.00,,,0.12,Wunderground v.1.15,2013-07-05 12:00:00,
2013-07-05 08:10:00,75.1,72.6,29.85,SSW,208,2.0,3.0,92,0.00,,,0.12,Wunderground v.1.15,2013-07-05 12:10:00,
2013-07-05 08:15:00,75.2,72.7,29.85,SSW,208,2.0,3.0,92,0.00,,,0.12,Wunderground v.1.15,2013-07-05 12:15:00,
2013-07-05 08:25:00,75.3,72.8,29.85,SSW,208,2.0,2.0,92,0.00,,,0.12,Wunderground v.1.15,2013-07-05 12:25:00,
2013-07-05 08:30:00,75.4,72.9,29.85,SSW,208,2.0,3.0,92,0.00,,,0.12,Wunderground v.1.15,2013-07-05 12:30:00,
2013-07-05 08:40:00,75.6,73.1,29.85,SSW,208,2.0,2.0,92,0.00,,,0.12,Wunderground v.1.15,2013-07-05 12:40:00,
2013-07-05 08:50:00,75.7,72.9,29.85,South,186,2.0,2.0,91,0.00,,,0.12,Wunderground v.1.15,2013-07-05 12:50:00,
2013-07-05 09:00:00,75.9,72.8,29.85,SSW,198,2.0,2.0,90,0.00,,,0.12,Wunderground v.1.15,2013-07-05 13:00:00,
2013-07-05 09:05:00,76.1,73.3,29.85,SSW,198,2.0,2.0,91,0.00,,,0.12,Wunderground v.1.15,2013-07-05 13:05:00,
2013-07-05 09:15:00,76.2,73.4,29.85,SSW,198,1.0,1.0,91,0.00,,,0.12,Wunderground v.1.15,2013-07-05 13:15:00,
2013-07-05 09:20:00,76.2,73.4,29.85,SSW,198,1.0,1.0,91,0.00,,,0.13,Wunderground v.1.15,2013-07-05 13:20:00,
2013-07-05 09:35:00,75.8,73.3,29.85,SSW,198,0.0,0.0,92,0.08,,,0.15,Wunderground v.1.15,2013-07-05 13:35:00,
2013-07-05 09:45:00,75.5,73.3,29.86,SSW,198,0.0,0.0,93,0.12,,,0.17,Wunderground v.1.15,2013-07-05 13:45:00,
2013-07-05 09:50:00,75.3,73.5,29.86,WSW,257,0.0,1.0,94,0.08,,,0.17,Wunderground v.1.15,2013-07-05 13:50:00,
2013-07-05 10:00:00,74.6,72.8,29.87,SW,225,2.0,3.0,94,0.73,,,0.26,Wunderground v.1.15,2013-07-05 14:00:00,
2013-07-05 10:06:00,73.7,71.5,29.86,SW,221,2.0,3.0,93,0.21,,,0.30,Wunderground v.1.15,2013-07-05 14:06:00,
2013-07-05 10:20:00,73.3,71.8,29.86,South,190,1.0,1.0,95,0.05,,,0.31,Wunderground v.1.15,2013-07-05 14:20:00,
2013-07-05 10:25:00,73.7,72.2,29.86,South,190,1.0,1.0,95,0.04,,,0.31,Wunderground v.1.15,2013-07-05 14:25:00,
2013-07-05 10:40:00,75.2,73.4,29.85,SSE,148,0.0,0.0,94,0.00,,,0.31,Wunderground v.1.15,2013-07-05 14:40:00,
2013-07-05 10:45:00,75.6,72.8,29.85,SSE,148,0.0,0.0,91,0.00,,,0.31,Wunderground v.1.15,2013-07-05 14:45:00,
2013-07-05 10:55:00,76.7,73.2,29.85,SW,234,0.0,0.0,89,0.00,,,0.31,Wunderground v.1.15,2013-07-05 14:55:00,
2013-07-05 11:06:00,77.4,73.9,29.85,SW,234,0.0,2.0,89,0.00,,,0.31,Wunderground v.1.15,2013-07-05 15:06:00,
2013-07-05 11:15:00,78.0,74.2,29.84,South,170,0.0,1.0,88,0.00,,,0.31,Wunderground v.1.15,2013-07-05 15:15:00,
2013-07-05 11:30:00,79.0,74.5,29.85,West,281,0.0,0.0,86,0.00,,,0.31,Wunderground v.1.15,2013-07-05 15:30:00,
2013-07-05 11:40:00,79.5,74.6,29.85,NW,306,0.0,0.0,85,0.00,,,0.31,Wunderground v.1.15,2013-07-05 15:40:00,
2013-07-05 11:50:00,79.1,73.5,29.85,NW,306,1.0,1.0,83,0.00,,,0.31,Wunderground v.1.15,2013-07-05 15:50:00,
2013-07-05 11:55:00,79.0,74.1,29.85,NW,306,0.0,1.0,85,0.00,,,0.31,Wunderground v.1.15,2013-07-05 15:55:00,
2013-07-05 12:00:00,79.0,74.5,29.84,NW,306,0.0,0.0,86,0.00,,,0.31,Wunderground v.1.15,2013-07-05 16:00:00,
2013-07-05 12:05:00,79.1,74.9,29.84,NW,304,0.0,0.0,87,0.00,,,0.31,Wunderground v.1.15,2013-07-05 16:05:00,
2013-07-05 12:15:00,79.6,75.0,29.84,West,277,0.0,2.0,86,0.00,,,0.31,Wunderground v.1.15,2013-07-05 16:15:00,
2013-07-05 12:20:00,79.7,74.8,29.84,SW,221,0.0,0.0,85,0.00,,,0.31,Wunderground v.1.15,2013-07-05 16:20:00,
2013-07-05 12:30:00,80.3,75.4,29.84,NNE,20,0.0,0.0,85,0.00,,,0.31,Wunderground v.1.15,2013-07-05 16:30:00,
2013-07-05 12:40:00,80.6,75.0,29.84,WSW,252,0.0,0.0,83,0.00,,,0.31,Wunderground v.1.15,2013-07-05 16:40:00,
2013-07-05 12:50:00,81.1,75.4,29.84,WSW,252,0.0,2.0,83,0.00,,,0.31,Wunderground v.1.15,2013-07-05 16:50:00,
2013-07-05 13:00:00,80.9,75.6,29.83,South,189,1.0,1.0,84,0.00,,,0.31,Wunderground v.1.15,2013-07-05 17:00:00,
2013-07-05 13:05:00,80.4,75.1,29.84,SE,136,1.0,1.0,84,0.00,,,0.31,Wunderground v.1.15,2013-07-05 17:05:00,
2013-07-05 13:15:00,80.8,76.2,29.83,SW,233,1.0,1.0,86,0.00,,,0.31,Wunderground v.1.15,2013-07-05 17:15:00,
2013-07-05 13:20:00,81.4,76.5,29.83,SW,233,1.0,1.0,85,0.00,,,0.31,Wunderground v.1.15,2013-07-05 17:20:00,
2013-07-05 13:30:00,81.7,75.7,29.83,WSW,250,1.0,6.0,82,0.00,,,0.31,Wunderground v.1.15,2013-07-05 17:30:00,
2013-07-05 13:40:00,81.5,75.5,29.83,SSW,212,2.0,3.0,82,0.00,,,0.31,Wunderground v.1.15,2013-07-05 17:40:00,
2013-07-05 13:50:00,81.9,76.2,29.83,South,189,1.0,1.0,83,0.00,,,0.31,Wunderground v.1.15,2013-07-05 17:50:00,
2013-07-05 14:00:00,82.5,75.3,29.82,SW,223,2.0,5.0,79,0.00,,,0.31,Wunderground v.1.15,2013-07-05 18:00:00,
2013-07-05 14:06:00,82.7,76.6,29.83,SSW,210,3.0,5.0,82,0.00,,,0.31,Wunderground v.1.15,2013-07-05 18:06:00,
2013-07-05 14:15:00,83.3,77.2,29.82,WSW,241,3.0,3.0,82,0.00,,,0.31,Wunderground v.1.15,2013-07-05 18:15:00,
2013-07-05 14:20:00,83.5,76.7,29.82,West,268,3.0,3.0,80,0.00,,,0.31,Wunderground v.1.15,2013-07-05 18:20:00,
2013-07-05 14:30:00,83.8,75.4,29.82,SSW,192,2.0,3.0,76,0.00,,,0.31,Wunderground v.1.15,2013-07-05 18:30:00,
2013-07-05 14:40:00,83.4,75.8,29.82,WSW,241,2.0,2.0,78,0.00,,,0.31,Wunderground v.1.15,2013-07-05 18:40:00,
2013-07-05 14:50:00,83.9,74.3,29.82,West,264,2.0,2.0,73,0.00,,,0.31,Wunderground v.1.15,2013-07-05 18:50:00,
2013-07-05 15:00:00,83.8,73.8,29.81,SW,220,1.0,1.0,72,0.00,,,0.31,Wunderground v.1.15,2013-07-05 19:00:00,
2013-07-05 15:05:00,83.7,74.1,29.81,SW,220,1.0,2.0,73,0.00,,,0.31,Wunderground v.1.15,2013-07-05 19:05:00,
2013-07-05 15:15:00,83.4,73.8,29.81,SW,215,2.0,3.0,73,0.00,,,0.31,Wunderground v.1.15,2013-07-05 19:15:00,
2013-07-05 15:20:00,83.4,75.4,29.81,SSW,211,2.0,2.0,77,0.00,,,0.31,Wunderground v.1.15,2013-07-05 19:20:00,
2013-07-05 15:30:00,83.3,74.9,29.81,NNE,12,2.0,3.0,76,0.00,,,0.31,Wunderground v.1.15,2013-07-05 19:30:00,
2013-07-05 15:40:00,81.2,74.8,29.81,West,269,3.0,3.0,81,0.00,,,0.31,Wunderground v.1.15,2013-07-05 19:40:00,
2013-07-05 15:45:00,80.7,74.7,29.81,NW,311,2.0,3.0,82,0.00,,,0.31,Wunderground v.1.15,2013-07-05 19:45:00,
2013-07-05 15:55:00,79.5,74.2,29.80,SW,236,3.0,3.0,84,0.00,,,0.31,Wunderground v.1.15,2013-07-05 19:55:00,
2013-07-05 16:00:00,79.3,74.0,29.81,NNW,330,2.0,2.0,84,0.00,,,0.31,Wunderground v.1.15,2013-07-05 20:00:00,
2013-07-05 16:06:00,79.8,75.2,29.80,NE,52,2.0,5.0,86,0.00,,,0.31,Wunderground v.1.15,2013-07-05 20:06:00,
2013-07-05 16:15:00,78.9,74.0,29.80,WNW,298,4.0,4.0,85,0.00,,,0.31,Wunderground v.1.15,2013-07-05 20:15:00,
2013-07-05 16:25:00,78.7,74.2,29.80,NE,42,2.0,3.0,86,0.00,,,0.31,Wunderground v.1.15,2013-07-05 20:25:00,
2013-07-05 16:35:00,78.4,74.2,29.80,ENE,61,2.0,3.0,87,0.00,,,0.31,Wunderground v.1.15,2013-07-05 20:35:00,
2013-07-05 16:45:00,78.5,74.0,29.80,ENE,61,1.0,2.0,86,0.00,,,0.31,Wunderground v.1.15,2013-07-05 20:45:00,
2013-07-05 16:55:00,79.9,75.0,29.80,ENE,61,0.0,1.0,85,0.00,,,0.31,Wunderground v.1.15,2013-07-05 20:55:00,
2013-07-05 17:00:00,80.6,75.0,29.80,ENE,67,0.0,2.0,83,0.00,,,0.31,Wunderground v.1.15,2013-07-05 21:00:00,
2013-07-05 17:05:00,81.3,73.8,29.80,SW,228,1.0,2.0,78,0.00,,,0.31,Wunderground v.1.15,2013-07-05 21:05:00,
2013-07-05 17:15:00,83.0,73.9,29.79,WNW,286,1.0,1.0,74,0.00,,,0.31,Wunderground v.1.15,2013-07-05 21:15:00,
2013-07-05 17:20:00,83.6,74.0,29.79,SSE,151,2.0,2.0,73,0.00,,,0.31,Wunderground v.1.15,2013-07-05 21:20:00,
2013-07-05 17:30:00,83.4,73.0,29.79,SW,228,2.0,2.0,71,0.00,,,0.31,Wunderground v.1.15,2013-07-05 21:30:00,
2013-07-05 17:40:00,83.1,74.4,29.79,SSW,209,1.0,3.0,75,0.00,,,0.31,Wunderground v.1.15,2013-07-05 21:40:00,
2013-07-05 17:50:00,82.6,73.5,29.79,SW,215,2.0,2.0,74,0.00,,,0.31,Wunderground v.1.15,2013-07-05 21:50:00,
2013-07-05 18:00:00,83.2,73.2,29.78,NW,323,1.0,6.0,72,0.00,,,0.31,Wunderground v.1.15,2013-07-05 22:00:00,
2013-07-05 18:05:00,83.2,72.8,29.78,SW,220,1.0,6.0,71,0.00,,,0.31,Wunderground v.1.15,2013-07-05 22:05:00,
2013-07-05 18:15:00,81.3,74.2,29.79,NNW,346,2.0,5.0,79,0.00,,,0.31,Wunderground v.1.15,2013-07-05 22:15:00,
2013-07-05 18:25:00,80.1,73.7,29.79,WNW,293,2.0,2.0,81,0.00,,,0.31,Wunderground v.1.15,2013-07-05 22:25:00,
2013-07-05 18:35:00,80.1,73.7,29.79,WSW,258,1.0,3.0,81,0.00,,,0.31,Wunderground v.1.15,2013-07-05 22:35:00,
2013-07-05 18:45:00,80.3,73.6,29.79,WSW,258,0.0,1.0,80,0.00,,,0.31,Wunderground v.1.15,2013-07-05 22:45:00,
2013-07-05 18:55:00,80.4,73.3,29.79,WSW,258,0.0,0.0,79,0.00,,,0.31,Wunderground v.1.15,2013-07-05 22:55:00,
2013-07-05 19:00:00,80.1,73.0,29.80,WSW,258,0.0,0.0,79,0.00,,,0.31,Wunderground v.1.15,2013-07-05 23:00:00,
2013-07-05 19:05:00,79.9,73.2,29.80,West,273,0.0,1.0,80,0.00,,,0.31,Wunderground v.1.15,2013-07-05 23:05:00,
2013-07-05 19:15:00,79.4,73.4,29.79,West,261,1.0,1.0,82,0.00,,,0.31,Wunderground v.1.15,2013-07-05 23:15:00,
2013-07-05 19:25:00,79.1,73.1,29.79,West,261,0.0,1.0,82,0.00,,,0.31,Wunderground v.1.15,2013-07-05 23:25:00,
2013-07-05 19:30:00,79.1,73.1,29.79,West,261,0.0,0.0,82,0.00,,,0.31,Wunderground v.1.15,2013-07-05 23:30:00,
2013-07-05 19:35:00,79.1,72.4,29.79,WNW,286,1.0,1.0,80,0.00,,,0.31,Wunderground v.1.15,2013-07-05 23:35:00,
2013-07-05 19:45:00,79.2,71.4,29.80,WNW,286,0.0,1.0,77,0.00,,,0.31,Wunderground v.1.15,2013-07-05 23:45:00,
2013-07-05 19:55:00,79.0,71.6,29.80,WSW,244,1.0,1.0,78,0.00,,,0.31,Wunderground v.1.15,2013-07-05 23:55:00,
2013-07-05 20:05:00,78.8,71.0,29.80,SW,222,2.0,3.0,77,0.00,,,0.31,Wunderground v.1.15,2013-07-06 00:05:00,
2013-07-05 20:15:00,78.5,71.1,29.80,SSW,210,4.0,5.0,78,0.00,,,0.31,Wunderground v.1.15,2013-07-06 00:15:00,
2013-07-05 20:20:00,78.3,70.9,29.80,SSW,209,4.0,4.0,78,0.00,,,0.31,Wunderground v.1.15,2013-07-06 00:20:00,
2013-07-05 20:30:00,77.8,70.8,29.80,SSW,213,3.0,5.0,79,0.00,,,0.31,Wunderground v.1.15,2013-07-06 00:30:00,
2013-07-05 20:40:00,77.4,70.7,29.80,SSW,202,3.0,3.0,80,0.00,,,0.31,Wunderground v.1.15,2013-07-06 00:40:00,
2013-07-05 20:50:00,76.8,70.5,29.80,SSW,200,4.0,4.0,81,0.00,,,0.31,Wunderground v.1.15,2013-07-06 00:50:00,
2013-07-05 20:55:00,76.5,70.2,29.80,SW,215,3.0,6.0,81,0.00,,,0.31,Wunderground v.1.15,2013-07-06 00:55:00,
2013-07-05 21:05:00,76.0,70.1,29.80,SSW,195,3.0,4.0,82,0.00,,,0.31,Wunderground v.1.15,2013-07-06 01:05:00,
2013-07-05 21:15:00,75.7,70.5,29.80,SW,217,3.0,3.0,84,0.00,,,0.31,Wunderground v.1.15,2013-07-06 01:15:00,
2013-07-05 21:25:00,75.0,70.2,29.80,SSW,207,4.0,4.0,85,0.00,,,0.31,Wunderground v.1.15,2013-07-06 01:25:00,
2013-07-05 21:35:00,74.3,70.2,29.80,SSW,209,4.0,7.0,87,0.00,,,0.31,Wunderground v.1.15,2013-07-06 01:35:00,
2013-07-05 21:45:00,73.8,70.0,29.81,SW,216,4.0,5.0,88,0.00,,,0.31,Wunderground v.1.15,2013-07-06 01:45:00,
2013-07-05 21:50:00,73.6,69.8,29.81,SW,229,4.0,5.0,88,0.00,,,0.31,Wunderground v.1.15,2013-07-06 01:50:00,
2013-07-05 22:00:00,73.2,69.8,29.81,SW,222,3.0,3.0,89,0.00,,,0.31,Wunderground v.1.15,2013-07-06 02:00:00,
2013-07-05 22:06:00,73.0,69.6,29.81,SSW,206,3.0,3.0,89,0.00,,,0.31,Wunderground v.1.15,2013-07-06 02:06:00,
2013-07-05 22:15:00,72.8,69.7,29.81,SW,216,3.0,7.0,90,0.00,,,0.31,Wunderground v.1.15,2013-07-06 02:15:00,
2013-07-05 22:25:00,72.5,69.7,29.81,SSW,207,4.0,5.0,91,0.00,,,0.31,Wunderground v.1.15,2013-07-06 02:25:00,
2013-07-05 22:35:00,72.2,69.7,29.81,SSW,207,4.0,4.0,92,0.00,,,0.31,Wunderground v.1.15,2013-07-06 02:35:00,
2013-07-05 22:45:00,72.0,69.5,29.82,SW,215,4.0,5.0,92,0.00,,,0.31,Wunderground v.1.15,2013-07-06 02:45:00,
2013-07-05 22:55:00,71.9,69.1,29.81,WSW,244,3.0,4.0,91,0.00,,,0.31,Wunderground v.1.15,2013-07-06 02:55:00,
2013-07-05 23:06:00,71.9,69.1,29.81,SW,231,4.0,4.0,91,0.00,,,0.31,Wunderground v.1.15,2013-07-06 03:06:00,
2013-07-05 23:15:00,71.9,69.1,29.81,SSW,205,5.0,5.0,91,0.00,,,0.31,Wunderground v.1.15,2013-07-06 03:15:00,
2013-07-05 23:20:00,71.9,69.1,29.81,SW,215,4.0,4.0,91,0.00,,,0.31,Wunderground v.1.15,2013-07-06 03:20:00,
2013-07-05 23:30:00,71.7,68.9,29.81,SW,236,3.0,4.0,91,0.00,,,0.31,Wunderground v.1.15,2013-07-06 03:30:00,
2013-07-05 23:40:00,71.7,68.9,29.82,WSW,249,3.0,3.0,91,0.00,,,0.31,Wunderground v.1.15,2013-07-06 03:40:00,
2013-07-05 23:45:00,71.7,68.9,29.82,WSW,237,3.0,3.0,91,0.00,,,0.31,Wunderground v.1.15,2013-07-06 03:45:00,
2013-07-05 23:55:00,71.6,68.8,29.82,SSW,210,2.0,3.0,91,0.00,,,0.31,Wunderground v.1.15,2013-07-06 03:55:00,